Time;durP1;ratioP1;P1;durP2;ratioP2;P2;SDS_P1;SDS_P2;PMS_P1;PMS_P2;Temp;Humidity;BMP_temperature;BMP_pressure;BME280_temperature;BME280_humidity;BME280_pressure;Samples;Min_cycle;Max_cycle;Signal;HPM_P1;HPM_P2
2022/02/22 00:00:44;;;;;;;18.42;2.35;;;;;;;6.37;76.44;100189.34;4765965;30;20075;-94
2022/02/22 00:03:46;;;;;;;;;;;;;;;;;;;;;
2022/02/22 00:06:43;;;;;;;14.63;2.70;;;;;;;6.02;75.81;100164.19;4796287;29;20141;-92
2022/02/22 00:09:34;;;;;;;13.10;2.67;;;;;;;6.33;72.88;100199.09;4803065;29;20174;-93
2022/02/22 00:12:17;;;;;;;;;;;;;;;6.45;73.19;100225.03;4805871;29;20172;-93
2022/02/22 00:15:30;;;;;;;10.02;1.90;;;;;;;6.30;73.92;100214.97;4806655;29;19925;-93
2022/02/22 00:21:46;;;;;;;12.73;2.58;;;;;;;6.54;74.02;100248.41;4769827;30;20059;-93
2022/02/22 00:25:12;;;;;;;;;;;;;;;;;;;;;
2022/02/22 00:28:21;;;;;;;;;;;;;;;;;;;;;
2022/02/22 00:31:24;;;;;;;;;;;;;;;;;;;;;
2022/02/22 00:34:51;;;;;;;;;;;;;;;;;;;;;
2022/02/22 00:38:21;;;;;;;;;;;;;;;;;;;;;
2022/02/22 00:41:22;;;;;;;;;;;;;;;;;;;;;
2022/02/22 00:44:37;;;;;;;;;;;;;;;;;;;;;
2022/02/22 00:50:48;;;;;;;15.00;2.47;;;;;;;6.35;73.27;100257.78;4738302;30;20060;-94
2022/02/22 00:53:51;;;;;;;13.93;2.90;;;;;;;6.42;73.64;100290.88;4754776;30;20112;-94
2022/02/22 00:56:25;;;;;;;17.67;3.13;;;;;;;6.16;72.68;100246.97;4746214;30;20056;-94
2022/02/22 00:59:07;;;;;;;;;;;;;;;;;;;;;
2022/02/22 01:01:53;;;;;;;15.60;2.55;;;;;;;6.35;71.47;100252.53;4753544;30;20037;-94
2022/02/22 01:05:15;;;;;;;13.65;2.42;;;;;;;6.38;72.21;100275.25;4738695;30;20071;-95
2022/02/22 01:08:19;;;;;;;;;;;;;;;;;;;;;
2022/02/22 01:12:15;;;;;;;;;;;;;;;;;;;;;
2022/02/22 01:15:23;;;;;;;10.65;2.50;;;;;;;6.35;71.63;100273.56;4770565;30;20417;-93
2022/02/22 01:18:04;;;;;;;12.98;2.50;;;;;;;6.33;71.29;100272.75;4760015;30;20087;-93
2022/02/22 01:21:19;;;;;;;16.92;2.55;;;;;;;6.51;71.04;100314.25;4740101;30;20063;-92
2022/02/22 01:24:17;;;;;;;;;;;;;;;;;;;;;
2022/02/22 01:27:27;;;;;;;20.33;3.03;;;;;;;6.42;71.43;100316.31;4754273;30;20064;-94
2022/02/22 01:30:15;;;;;;;;;;;;;;;;;;;;;
2022/02/22 01:33:23;;;;;;;;;;;;;;;;;;;;;
2022/02/22 01:36:14;;;;;;;18.05;2.60;;;;;;;6.08;72.61;100296.31;4735118;29;20147;-95
2022/02/22 01:39:06;;;;;;;;;;;;;;;;;;;;;
2022/02/22 01:42:23;;;;;;;13.23;2.63;;;;;;;6.10;73.27;100330.44;4790515;29;20090;-93
2022/02/22 01:45:19;;;;;;;15.13;2.70;;;;;;;5.99;73.40;100322.88;4801595;29;20542;-93
2022/02/22 01:48:44;;;;;;;20.25;3.15;;;;;;;6.02;72.38;100321.91;4791107;29;20550;-93
2022/02/22 01:51:40;;;;;;;17.23;3.40;;;;;;;6.26;72.44;100368.53;4784183;29;20047;-92
2022/02/22 01:54:54;;;;;;;23.98;4.32;;;;;;;5.92;72.20;100332.72;4804008;29;20134;-92
2022/02/22 01:58:00;;;;;;;;;;;;;;;;;;;;;
2022/02/22 02:01:04;;;;;;;23.10;4.30;;;;;;;6.17;71.84;100393.31;4752359;29;20151;-92
2022/02/22 02:03:41;;;;;;;19.05;3.63;;;;;;;5.83;71.49;100345.19;4805774;29;20479;-92
2022/02/22 02:06:41;;;;;;;17.45;3.08;;;;;;;5.73;72.35;100347.25;4803097;29;20061;-92
2022/02/22 02:09:22;;;;;;;;;;;;;;;;;;;;;
2022/02/22 02:12:04;;;;;;;18.20;3.13;;;;;;;5.66;72.35;100389.50;4795922;29;19925;-94
2022/02/22 02:14:58;;;;;;;21.10;3.28;;;;;;;5.45;72.68;100373.41;4805396;29;20182;-94
2022/02/22 02:17:29;;;;;;;19.33;3.95;;;;;;;5.48;73.17;100381.19;4842661;29;20082;-93
2022/02/22 02:20:11;;;;;;;23.60;3.53;;;;;;;5.57;72.30;100373.06;4857891;29;20463;-95
2022/02/22 02:22:58;;;;;;;18.45;3.85;;;;;;;5.68;71.78;100372.75;4847651;29;20084;-94
2022/02/22 02:25:58;;;;;;;;;;;;;;;;;;;;;
2022/02/22 02:28:54;;;;;;;19.10;3.00;;;;;;;5.94;71.02;100395.75;4846409;29;20160;-92
2022/02/22 02:31:43;;;;;;;17.17;3.10;;;;;;;5.98;70.09;100415.78;4859548;29;20068;-91
2022/02/22 02:34:14;;;;;;;18.58;2.97;;;;;;;5.94;69.88;100393.97;4854919;29;20128;-93
2022/02/22 02:36:57;;;;;;;22.52;3.50;;;;;;;6.00;69.52;100390.28;4866317;29;20152;-93
2022/02/22 02:39:33;;;;;;;18.75;2.92;;;;;;;5.83;69.37;100374.97;4860275;29;20094;-93
2022/02/22 02:42:17;;;;;;;20.95;3.28;;;;;;;5.81;69.54;100384.69;4868437;29;20128;-93
2022/02/22 02:44:54;;;;;;;24.88;3.95;;;;;;;5.96;69.15;100400.06;4861105;29;20117;-94
2022/02/22 02:47:33;;;;;;;19.40;3.70;;;;;;;5.97;69.49;100420.19;4862803;29;20073;-93
2022/02/22 02:50:11;;;;;;;19.00;2.90;;;;;;;5.77;69.25;100374.28;4866419;29;20446;-93
2022/02/22 02:56:06;;;;;;;17.92;3.00;;;;;;;6.05;68.36;100446.25;4870728;29;20084;-93
2022/02/22 03:02:04;;;;;;;21.35;2.85;;;;;;;5.64;69.11;100394.78;4871237;29;20101;-95
2022/02/22 03:05:21;;;;;;;;;;;;;;;;;;;;;
2022/02/22 03:07:59;;;;;;;20.90;3.33;;;;;;;5.63;68.83;100401.81;4843697;29;20080;-91
2022/02/22 03:10:57;;;;;;;23.00;3.45;;;;;;;5.72;68.84;100424.34;4848629;29;20493;-91
2022/02/22 03:13:34;;;;;;;14.88;3.30;;;;;;;5.72;68.53;100426.97;4862862;29;20053;-92
2022/02/22 03:16:34;;;;;;;25.20;3.50;;;;;;;5.93;68.00;100450.06;4863576;29;20105;-92
2022/02/22 03:19:22;;;;;;;18.95;3.28;;;;;;;5.92;68.26;100481.66;4860365;29;20088;-94
2022/02/22 03:22:22;;;;;;;25.55;3.58;;;;;;;5.57;68.16;100414.22;4860464;29;20068;-95
2022/02/22 03:25:10;;;;;;;21.85;3.78;;;;;;;5.53;69.00;100433.59;4860787;29;20049;-94
2022/02/22 03:28:08;;;;;;;15.77;3.35;;;;;;;5.52;69.01;100416.09;4863428;29;20165;-94
2022/02/22 03:31:13;;;;;;;24.33;3.38;;;;;;;5.67;68.71;100455.09;4864340;29;20061;-94
2022/02/22 03:34:05;;;;;;;18.85;2.80;;;;;;;5.75;69.54;100496.97;4872569;29;20045;-92
2022/02/22 03:36:43;;;;;;;21.27;2.85;;;;;;;5.44;70.12;100450.47;4868601;29;20114;-94
2022/02/22 03:39:34;;;;;;;18.58;3.08;;;;;;;5.31;70.07;100440.31;4859936;29;20061;-93
2022/02/22 03:42:20;;;;;;;18.38;2.83;;;;;;;5.35;70.29;100442.81;4862389;29;20057;-95
2022/02/22 03:45:22;;;;;;;17.90;3.25;;;;;;;5.42;70.43;100469.78;4805089;29;20066;-93
2022/02/22 03:48:23;;;;;;;;;;;;;;;;;;;;;
2022/02/22 03:51:24;;;;;;;17.85;2.97;;;;;;;5.38;70.07;100481.25;4801273;29;20055;-94
2022/02/22 03:54:16;;;;;;;15.93;2.90;;;;;;;5.38;70.12;100484.75;4806646;29;20054;-93
2022/02/22 03:57:04;;;;;;;20.38;3.25;;;;;;;5.41;70.57;100486.44;4809041;29;20069;-95
2022/02/22 03:59:56;;;;;;;;;;;;;;;;;;;;;
2022/02/22 04:02:45;;;;;;;26.02;3.20;;;;;;;5.08;70.87;100462.72;4817312;29;20588;-94
2022/02/22 04:05:42;;;;;;;22.67;2.70;;;;;;;5.01;71.52;100476.03;4809462;29;20465;-92
2022/02/22 04:08:50;;;;;;;;;;;;;;;;;;;;;
2022/02/22 04:11:49;;;;;;;20.77;3.38;;;;;;;5.32;73.04;100544.44;4805806;29;20483;-94
2022/02/22 04:14:43;;;;;;;;;;;;;;;;;;;;;
2022/02/22 04:17:37;;;;;;;16.15;2.97;;;;;;;5.08;73.56;100503.84;4800304;29;20051;-94
2022/02/22 04:20:17;;;;;;;16.73;2.78;;;;;;;5.36;72.86;100539.06;4798060;29;20050;-93
2022/02/22 04:23:08;;;;;;;20.98;3.58;;;;;;;5.09;72.54;100498.56;4799405;29;20069;-93
2022/02/22 04:25:49;;;;;;;21.75;2.80;;;;;;;5.19;72.93;100533.34;4799386;29;20096;-94
2022/02/22 04:29:05;;;;;;;;;;;;;;;;;;;;;
2022/02/22 04:31:37;;;;;;;;;;;;;;;;;;;;;
2022/02/22 04:34:18;;;;;;;16.55;3.15;;;;;;;5.27;72.00;100520.91;4802038;29;20075;-93
2022/02/22 04:37:02;;;;;;;19.45;2.95;;;;;;;5.16;71.96;100510.66;4805251;29;20454;-95
2022/02/22 04:39:42;;;;;;;17.83;2.90;;;;;;;5.11;73.04;100523.00;4800014;29;20043;-94
2022/02/22 04:42:28;;;;;;;15.95;3.33;;;;;;;5.28;72.81;100552.38;4799226;29;20127;-94
2022/02/22 04:45:15;;;;;;;19.70;2.60;;;;;;;5.11;73.91;100536.13;4803155;29;20507;-94
2022/02/22 04:51:34;;;;;;;;;;;;;;;;;;;;;
2022/02/22 04:54:26;;;;;;;;;;;;;;;;;;;;;
2022/02/22 04:56:59;;;;;;;18.50;3.28;;;;;;;4.71;76.71;100559.75;4821860;29;20058;-94
2022/02/22 04:59:58;;;;;;;21.45;3.45;;;;;;;4.64;77.31;100565.16;4811542;29;20098;-94
2022/02/22 05:02:58;;;;;;;;;;;;;;;;;;;;;
2022/02/22 05:06:43;;;;;;;16.00;3.00;;;;;;;4.78;75.90;100578.84;4820388;29;20065;-91
2022/02/22 05:09:32;;;;;;;24.45;4.35;;;;;;;5.18;74.73;100620.88;4818297;29;20058;-94
2022/02/22 05:12:34;;;;;;;;;;;;;;;;;;;;;
2022/02/22 05:16:04;;;;;;;18.60;3.15;;;;;;;5.04;74.78;100610.66;4824398;29;20053;-93
2022/02/22 05:19:09;;;;;;;;;;;;;;;;;;;;;
2022/02/22 05:22:07;;;;;;;22.48;3.67;;;;;;;4.79;75.86;100597.19;4813264;29;20053;-93
2022/02/22 05:25:00;;;;;;;24.42;3.55;;;;;;;4.68;75.10;100601.78;4848330;29;20426;-93
2022/02/22 05:27:35;;;;;;;22.48;3.95;;;;;;;4.63;75.52;100600.13;4867409;29;20049;-94
2022/02/22 05:30:29;;;;;;;20.48;3.67;;;;;;;4.87;74.93;100642.50;4806639;29;20058;-93
2022/02/22 05:33:16;;;;;;;19.90;3.30;;;;;;;4.71;75.18;100611.34;4807806;29;20051;-92
2022/02/22 05:36:21;;;;;;;22.33;3.60;;;;;;;4.90;74.39;100624.06;4742037;30;20056;-95
2022/02/22 05:39:00;;;;;;;20.27;3.47;;;;;;;4.93;74.32;100624.00;4738112;30;20061;-92
2022/02/22 05:41:48;;;;;;;17.88;3.60;;;;;;;4.93;73.98;100629.25;4735607;30;20147;-92
2022/02/22 05:44:33;;;;;;;17.35;2.85;;;;;;;5.20;74.30;100650.56;4740804;30;20060;-92
2022/02/22 05:47:27;;;;;;;16.38;3.28;;;;;;;4.92;74.70;100619.66;4739844;30;20055;-92
2022/02/22 05:50:13;;;;;;;26.83;5.00;;;;;;;5.10;74.40;100647.28;4734809;30;20061;-92
2022/02/22 05:53:00;;;;;;;18.08;3.40;;;;;;;4.90;74.71;100620.56;4804232;29;20061;-92
2022/02/22 05:55:39;;;;;;;22.50;3.83;;;;;;;4.96;75.38;100628.31;4863469;29;20050;-93
2022/02/22 05:58:19;;;;;;;18.35;3.83;;;;;;;4.85;75.73;100623.31;4873892;29;20079;-94
2022/02/22 06:01:09;;;;;;;24.05;4.07;;;;;;;4.99;75.70;100657.13;4859259;29;20049;-92
2022/02/22 06:03:52;;;;;;;20.55;4.30;;;;;;;5.16;75.99;100688.31;4863427;29;20137;-92
2022/02/22 06:06:49;;;;;;;20.25;3.58;;;;;;;5.07;75.46;100681.47;4856358;29;20050;-94
2022/02/22 06:09:21;;;;;;;28.50;3.60;;;;;;;4.90;74.92;100646.81;4845795;29;20050;-93
2022/02/22 06:12:04;;;;;;;19.23;3.53;;;;;;;5.12;74.57;100674.38;4860655;29;20053;-93
2022/02/22 06:15:05;;;;;;;;;;;;;;;;;;;;;
2022/02/22 06:17:52;;;;;;;22.77;3.67;;;;;;;5.19;73.09;100706.63;4860353;29;20079;-93
2022/02/22 06:20:35;;;;;;;20.90;3.25;;;;;;;4.89;73.22;100668.69;4862260;29;20048;-93
2022/02/22 06:23:09;;;;;;;19.45;3.28;;;;;;;5.11;72.82;100719.00;4863885;29;20144;-92
2022/02/22 06:25:46;;;;;;;17.52;3.20;;;;;;;4.78;73.44;100678.53;4869154;29;20053;-91
2022/02/22 06:28:19;;;;;;;20.25;3.58;;;;;;;4.73;73.39;100676.00;4862707;29;20056;-94
2022/02/22 06:30:54;;;;;;;19.60;3.55;;;;;;;4.87;73.13;100715.97;4846251;29;20054;-92
2022/02/22 06:33:31;;;;;;;18.63;4.07;;;;;;;4.84;72.89;100700.28;4863830;29;20067;-91
2022/02/22 06:36:02;;;;;;;25.77;4.13;;;;;;;4.74;73.04;100689.97;4863789;29;20047;-92
2022/02/22 06:38:46;;;;;;;;;;;;;;;;;;;;;
2022/02/22 06:41:34;;;;;;;19.13;3.17;;;;;;;4.79;73.28;100711.75;4864681;29;20125;-94
2022/02/22 06:44:46;;;;;;;;;;;;;;;;;;;;;
2022/02/22 06:47:49;;;;;;;18.38;3.78;;;;;;;4.86;72.76;100716.00;4861116;29;20061;-94
2022/02/22 06:50:49;;;;;;;17.77;3.20;;;;;;;4.88;72.96;100725.56;4867142;29;20045;-96
2022/02/22 06:53:52;;;;;;;19.15;3.72;;;;;;;5.01;72.72;100755.09;4860164;29;20057;-93
2022/02/22 06:56:24;;;;;;;24.50;3.95;;;;;;;5.08;72.79;100771.56;4873514;29;20037;-94
2022/02/22 06:58:57;;;;;;;22.60;4.32;;;;;;;4.85;73.02;100733.50;4873056;29;20486;-89
2022/02/22 07:01:34;;;;;;;15.90;3.20;;;;;;;4.86;72.92;100735.25;4854184;29;20121;-90
2022/02/22 07:04:32;;;;;;;20.15;3.35;;;;;;;5.00;72.33;100757.72;4869922;29;20061;-92
2022/02/22 07:07:32;;;;;;;25.88;3.78;;;;;;;5.25;72.10;100767.72;4859206;29;20058;-89
2022/02/22 07:10:18;;;;;;;24.90;4.18;;;;;;;5.03;71.84;100732.31;4861478;29;20137;-91
2022/02/22 07:13:25;;;;;;;19.40;4.03;;;;;;;5.08;71.78;100747.94;4862579;29;20177;-90
2022/02/22 07:15:53;;;;;;;22.00;4.55;;;;;;;5.25;72.25;100780.00;4859686;29;20073;-94
2022/02/22 07:18:33;;;;;;;25.65;3.80;;;;;;;5.44;72.17;100777.88;4861983;29;20098;-91
2022/02/22 07:21:11;;;;;;;19.88;3.60;;;;;;;5.48;71.85;100782.19;4859622;29;20140;-93
2022/02/22 07:24:23;;;;;;;;;;;;;;;;;;;;;
2022/02/22 07:28:09;;;;;;;;;;;;;;;;;;;;;
2022/02/22 07:30:50;;;;;;;23.50;3.70;;;;;;;6.08;70.48;100848.41;4836487;29;20054;-93
2022/02/22 07:33:23;;;;;;;26.65;3.30;;;;;;;5.81;70.99;100806.91;4851715;29;20045;-92
2022/02/22 07:35:56;;;;;;;24.38;3.67;;;;;;;5.88;71.45;100851.44;4861245;29;20049;-93
2022/02/22 07:38:49;;;;;;;15.50;3.33;;;;;;;5.61;71.40;100783.66;4864554;29;20045;-93
2022/02/22 07:41:28;;;;;;;15.50;3.55;;;;;;;5.91;71.26;100850.53;4852757;29;20049;-91
2022/02/22 07:44:26;;;;;;;;;;;;;;;;;;;;;
2022/02/22 07:47:33;;;;;;;18.23;3.17;;;;;;;5.39;73.03;100805.97;4861627;29;20136;-91
2022/02/22 07:51:09;;;;;;;26.77;4.03;;;;;;;5.41;74.42;100814.72;4861754;29;20057;-94
2022/02/22 07:54:47;;;;;;;;;;;;;;;;;;;;;
2022/02/22 07:57:28;;;;;;;;;;;;;;;6.26;72.16;100874.31;4779767;29;20047;-92
2022/02/22 08:04:40;;;;;;;;;;;;;;;;;;;;;
2022/02/22 08:07:28;;;;;;;19.48;3.30;;;;;;;6.04;71.36;100856.38;4823105;29;20066;-92
2022/02/22 08:15:13;;;;;;;;;;;;;;;;;;;;;
2022/02/22 08:21:34;;;;;;;22.15;3.47;;;;;;;6.14;69.19;100857.94;4718671;30;20367;-93
2022/02/22 08:24:48;;;;;;;18.77;3.10;;;;;;;6.13;69.01;100866.72;4725115;30;20063;-91
2022/02/22 08:28:12;;;;;;;13.75;2.42;;;;;;;6.03;68.33;100847.63;4718264;30;20065;-93
2022/02/22 08:31:15;;;;;;;21.35;3.13;;;;;;;6.34;68.06;100871.50;4712694;30;20060;-93
2022/02/22 08:34:49;;;;;;;18.15;2.83;;;;;;;6.72;65.76;100896.97;4692285;30;20069;-93
2022/02/22 08:37:53;;;;;;;;;;;;;;;;;;;;;
2022/02/22 08:40:49;;;;;;;16.30;2.80;;;;;;;7.23;64.76;100900.09;4694500;30;20057;-91
2022/02/22 08:43:56;;;;;;;;;;;;;;;;;;;;;
2022/02/22 08:50:47;;;;;;;17.70;3.65;;;;;;;8.30;61.62;100911.22;4695706;30;20068;-93
2022/02/22 08:54:43;;;;;;;;;;;;;;;;;;;;;
2022/02/22 09:09:41;;;;;;;17.75;3.00;;;;;;;8.57;58.42;100906.91;4682487;30;20049;-91
2022/02/22 09:20:34;;;;;;;21.33;3.92;;;;;;;7.68;60.71;100869.03;4656894;30;20076;-92
2022/02/22 09:23:40;;;;;;;14.98;3.00;;;;;;;7.72;60.43;100907.56;4717670;30;20056;-93
2022/02/22 09:27:04;;;;;;;12.27;2.13;;;;;;;7.69;60.59;100904.16;4751167;29;20061;-93
2022/02/22 09:30:11;;;;;;;;;;;;;;;;;;;;;
2022/02/22 09:37:04;;;;;;;;;;;;;;;;;;;;;
2022/02/22 09:40:36;;;;;;;;;;;;;;;;;;;;;
2022/02/22 09:44:03;;;;;;;12.90;2.67;;;;;;;8.16;57.63;100843.94;4819263;29;20607;-92
2022/02/22 09:46:52;;;;;;;12.75;2.40;;;;;;;7.96;58.67;100858.56;4819391;29;20070;-91
2022/02/22 09:50:27;;;;;;;12.88;2.40;;;;;;;8.19;59.45;100849.09;4831344;29;20617;-93
2022/02/22 09:53:40;;;;;;;;;;;;;;;;;;;;;
2022/02/22 09:57:01;;;;;;;;;;;;;;;;;;;;;
2022/02/22 10:11:28;;;;;;;13.55;2.90;;;;;;;8.79;59.57;100831.41;4742588;29;20482;-92
2022/02/22 10:14:50;;;;;;;;;;;;;;;;;;;;;
2022/02/22 10:21:20;;;;;;;12.10;2.53;;;;;;;9.14;57.86;100890.09;4859283;29;20145;-92
2022/02/22 10:23:58;;;;;;;;;;;;;;;;;;;;;
2022/02/22 10:27:18;;;;;;;;;;;;;;;;;;;;;
2022/02/22 10:30:50;;;;;;;16.35;2.70;;;;;;;8.93;59.16;100864.41;4834839;29;20045;-92
2022/02/22 10:34:03;;;;;;;10.70;2.63;;;;;;;8.96;58.34;100838.78;4871426;29;20052;-91
2022/02/22 10:37:25;;;;;;;;;;;;;;;;;;;;;
2022/02/22 10:41:01;;;;;;;;;;;;;;;;;;;;;
2022/02/22 10:44:08;;;;;;;;;;;;;;;;;;;;;
2022/02/22 10:47:20;;;;;;;10.38;2.70;;;;;;;9.27;57.33;100817.47;4873325;29;20204;-93
2022/02/22 10:50:36;;;;;;;16.45;3.05;;;;;;;9.20;57.72;100810.66;4865458;29;20045;-92
2022/02/22 10:54:09;;;;;;;;;;;;;;;;;;;;;
2022/02/22 10:57:06;;;;;;;13.98;2.78;;;;;;;9.14;57.66;100785.28;4841072;29;20057;-91
2022/02/22 11:00:21;;;;;;;;;;;;;;;;;;;;;
2022/02/22 11:03:19;;;;;;;9.75;2.80;;;;;;;9.62;58.72;100836.47;4836098;29;20095;-91
2022/02/22 11:06:19;;;;;;;;;;;;;;;;;;;;;
2022/02/22 11:09:40;;;;;;;10.52;2.78;;;;;;;9.70;57.52;100839.72;4861130;29;20153;-90
2022/02/22 11:13:26;;;;;;;12.15;2.60;;;;;;;9.45;58.48;100782.41;4782558;29;20196;-92
2022/02/22 11:19:57;;;;;;;;;;;;;;;;;;;;;
2022/02/22 11:23:30;;;;;;;;;;;;;;;;;;;;;
2022/02/22 11:26:46;;;;;;;11.02;2.45;;;;;;;10.08;55.58;100749.19;4785734;29;20063;-91
2022/02/22 11:30:07;;;;;;;;;;;;;;;;;;;;;
2022/02/22 11:33:24;;;;;;;;;;;;;;;;;;;;;
2022/02/22 11:36:39;;;;;;;9.55;2.28;;;;;;;10.58;54.46;100790.47;4849081;29;20492;-90
2022/02/22 11:40:01;;;;;;;;;;;;;;;;;;;;;
2022/02/22 11:43:34;;;;;;;;;;;;;;;;;;;;;
2022/02/22 11:47:04;;;;;;;;;;;;;;;;;;;;;
2022/02/22 11:51:16;;;;;;;;;;;;;;;;;;;;;
2022/02/22 11:53:43;;;;;;;9.00;2.10;;;;;;;10.27;55.21;100802.28;4690131;30;20102;-91
2022/02/22 11:57:19;;;;;;;;;;;;;;;;;;;;;
2022/02/22 12:01:05;;;;;;;;;;;;;;;;;;;;;
2022/02/22 12:03:58;;;;;;;9.50;2.20;;;;;;;10.01;56.18;100815.63;4732040;30;20548;-89
2022/02/22 12:07:01;;;;;;;8.07;2.17;;;;;;;10.15;56.29;100803.59;4728554;30;20060;-89
2022/02/22 12:09:43;;;;;;;5.82;1.90;;;;;;;10.25;56.68;100820.00;4768383;30;20059;-90
2022/02/22 12:13:08;;;;;;;9.48;2.00;;;;;;;10.00;55.85;100761.00;4768329;30;20203;-92
2022/02/22 12:17:08;;;;;;;10.88;2.42;;;;;;;10.36;55.60;100807.25;4749540;30;20081;-92
2022/02/22 12:20:42;;;;;;;;;;;;;;;;;;;;;
2022/02/22 12:23:42;;;;;;;7.57;2.75;;;;;;;10.03;55.98;100745.00;4736781;30;20407;-91
2022/02/22 12:27:03;;;;;;;9.68;2.47;;;;;;;9.94;56.45;100756.78;4733983;30;20048;-93
2022/02/22 12:34:15;;;;;;;8.10;2.15;;;;;;;9.89;58.10;100774.66;4805164;29;20053;-92
2022/02/22 12:37:12;;;;;;;;;;;;;;;;;;;;;
2022/02/22 12:40:59;;;;;;;;;;;;;;;;;;;;;
2022/02/22 12:43:56;;;;;;;;;;;;;;;9.85;59.41;100783.59;4844593;29;20054;-92
2022/02/22 12:47:18;;;;;;;;;;;;;;;;;;;;;
2022/02/22 12:50:34;;;;;;;;;;;;;;;;;;;;;
2022/02/22 12:53:40;;;;;;;8.90;2.30;;;;;;;9.56;60.82;100778.53;4859667;29;20118;-93
2022/02/22 12:57:29;;;;;;;12.55;3.08;;;;;;;9.48;61.29;100769.09;4865592;29;20068;-92
2022/02/22 13:00:14;;;;;;;10.50;2.45;;;;;;;9.39;61.41;100727.16;4844674;29;20057;-91
2022/02/22 13:03:22;;;;;;;12.25;2.78;;;;;;;9.60;60.43;100735.22;4832074;29;20117;-89
2022/02/22 13:06:23;;;;;;;;;;;;;;;;;;;;;
2022/02/22 13:09:41;;;;;;;;;;;;;;;;;;;;;
2022/02/22 13:12:30;;;;;;;10.23;2.53;;;;;;;9.25;61.91;100739.16;4842864;29;20077;-92
2022/02/22 13:15:16;;;;;;;;;;;;;;;;;;;;;
2022/02/22 13:18:39;;;;;;;10.32;2.35;;;;;;;9.28;62.00;100694.13;4859784;29;20050;-91
2022/02/22 13:21:28;;;;;;;13.35;2.92;;;;;;;9.28;61.41;100687.06;4829329;29;20083;-91
2022/02/22 13:28:00;;;;;;;10.50;2.75;;;;;;;9.76;61.35;100733.69;4860751;29;20057;-91
2022/02/22 13:31:05;;;;;;;12.52;2.97;;;;;;;9.83;61.19;100733.41;4853835;29;20053;-90
2022/02/22 13:37:43;;;;;;;;;;;;;;;;;;;;;
2022/02/22 13:41:08;;;;;;;;;;;;;;;;;;;;;
2022/02/22 13:47:11;;;;;;;13.48;3.15;;;;;;;9.81;61.66;100661.19;4734044;30;20080;-90
2022/02/22 13:50:19;;;;;;;13.52;3.05;;;;;;;10.11;61.13;100695.28;4736078;30;20056;-90
2022/02/22 13:53:17;;;;;;;15.02;3.10;;;;;;;10.02;62.37;100659.47;4734484;30;20095;-92
2022/02/22 13:56:43;;;;;;;;;;;;;;;;;;;;;
2022/02/22 13:59:19;;;;;;;14.68;3.05;;;;;;;9.63;64.32;100632.81;4757587;30;20056;-90
2022/02/22 14:02:29;;;;;;;15.50;3.78;;;;;;;9.23;66.99;100630.00;4765499;30;20044;-90
2022/02/22 14:05:04;;;;;;;15.95;3.58;;;;;;;9.04;68.31;100640.38;4758682;30;20092;-93
2022/02/22 14:07:54;;;;;;;11.15;2.95;;;;;;;8.95;68.63;100619.59;4756806;30;20052;-93
2022/02/22 14:10:46;;;;;;;17.15;3.72;;;;;;;8.86;69.53;100615.50;4808773;29;20140;-93
2022/02/22 14:13:23;;;;;;;14.82;3.65;;;;;;;8.87;70.54;100650.69;4869427;29;20102;-93
2022/02/22 14:16:50;;;;;;;;;;;;;;;;;;;;;
2022/02/22 14:23:31;;;;;;;;;;;;;;;;;;;;;
2022/02/22 14:26:58;;;;;;;19.90;4.00;;;;;;;8.68;73.13;100712.06;4761465;29;20088;-91
2022/02/22 14:29:45;;;;;;;;;;;;;;;;;;;;;
2022/02/22 14:32:32;;;;;;;;;;;;;;;;;;;;;
2022/02/22 14:36:05;;;;;;;18.08;4.07;;;;;;;8.46;73.67;100623.13;4792462;29;21187;-92
2022/02/22 14:39:22;;;;;;;20.67;3.30;;;;;;;8.73;73.57;100635.34;4795111;29;20062;-92
2022/02/22 14:42:37;;;;;;;18.23;3.63;;;;;;;8.70;74.29;100649.50;4802356;29;20057;-90
2022/02/22 14:45:21;;;;;;;25.30;4.40;;;;;;;8.46;75.06;100623.13;4781286;29;20182;-92
2022/02/22 14:48:28;;;;;;;20.88;4.03;;;;;;;8.38;76.64;100632.16;4798786;29;20054;-93
2022/02/22 14:52:00;;;;;;;18.85;3.42;;;;;;;7.95;81.73;100631.84;4784425;29;20504;-92
2022/02/22 15:11:52;;;;;;;;;;;;;;;;;;;;;
2022/02/22 15:19:15;;;;;;;24.23;4.83;;;;;;;7.06;96.65;100656.53;4736508;30;20075;-93
2022/02/22 15:30:36;;;;;;;;;;;;;;;;;;;;;
2022/02/22 15:57:03;;;;;;;;;;;;;;;;;;;;;
2022/02/22 16:00:04;;;;;;;34.45;6.07;;;;;;;6.59;100.00;100585.88;6358705;22;20344;-93
2022/02/22 16:03:11;;;;;;;;;;;;;;;;;;;;;
2022/02/22 16:09:56;;;;;;;27.02;4.97;;;;;;;6.74;100.00;100597.75;6293998;22;20045;-94
2022/02/22 16:13:02;;;;;;;18.88;4.43;;;;;;;6.50;100.00;100554.56;6303376;22;20022;-91
2022/02/22 16:15:52;;;;;;;;;;;;;;;;;;;;;
2022/02/22 16:18:49;;;;;;;28.98;5.18;;;;;;;6.58;100.00;100555.22;6282168;22;20063;-93
2022/02/22 16:21:49;;;;;;;;;;;;;;;;;;;;;
2022/02/22 16:25:11;;;;;;;;;;;;;;;;;;;;;
2022/02/22 16:28:01;;;;;;;27.38;5.72;;;;;;;6.91;98.84;100584.13;6166223;23;20052;-92
2022/02/22 16:31:13;;;;;;;19.27;5.13;;;;;;;6.80;98.56;100562.47;6127296;23;20044;-93
2022/02/22 16:34:47;;;;;;;;;;;;;;;;;;;;;
2022/02/22 16:38:03;;;;;;;22.35;4.72;;;;;;;7.19;94.19;100573.63;6165865;23;20090;-93
2022/02/22 16:41:56;;;;;;;;;;;;;;;;;;;;;
2022/02/22 16:44:55;;;;;;;;;;;;;;;;;;;;;
2022/02/22 16:48:13;;;;;;;19.90;3.65;;;;;;;7.56;90.19;100583.88;6042983;23;20023;-91
2022/02/22 16:51:05;;;;;;;;;;;;;;;7.67;89.66;100592.31;6039642;23;20043;-91
2022/02/22 16:54:21;;;;;;;15.95;3.78;;;;;;;7.65;88.46;100547.56;6123812;23;20705;-95
2022/02/22 16:57:27;;;;;;;;;;;;;;;;;;;;;
2022/02/22 17:00:33;;;;;;;18.23;3.70;;;;;;;7.60;88.70;100548.59;6242461;23;20020;-92
2022/02/22 17:03:28;;;;;;;16.67;3.60;;;;;;;7.84;88.38;100610.22;6223381;23;20242;-93
2022/02/22 17:07:09;;;;;;;15.13;3.25;;;;;;;7.50;87.79;100544.56;6296223;22;20829;-93
2022/02/22 17:09:59;;;;;;;16.23;3.58;;;;;;;7.71;88.37;100586.03;6355598;22;20022;-93
2022/02/22 17:12:40;;;;;;;13.02;3.22;;;;;;;7.60;87.75;100553.88;6347061;22;20022;-92
2022/02/22 17:15:32;;;;;;;;;;;;;;;;;;;;;
2022/02/22 17:18:15;;;;;;;17.95;3.85;;;;;;;7.94;87.12;100601.97;6374638;22;20022;-93
2022/02/22 17:21:31;;;;;;;14.77;3.10;;;;;;;7.87;86.97;100575.88;6376984;22;20018;-95
2022/02/22 17:24:18;;;;;;;12.75;3.03;;;;;;;7.59;86.92;100523.16;6281310;22;20122;-93
2022/02/22 17:26:58;;;;;;;8.93;3.03;;;;;;;7.97;86.96;100575.50;6280106;22;20020;-93
2022/02/22 17:29:53;;;;;;;7.93;2.60;;;;;;;7.83;86.98;100555.78;6282127;22;20019;-94
2022/02/22 17:33:00;;;;;;;15.10;4.05;;;;;;;7.74;87.09;100557.78;6271031;22;20024;-93
2022/02/22 17:36:16;;;;;;;8.43;2.55;;;;;;;7.61;87.01;100522.22;6278460;22;20050;-93
2022/02/22 17:38:58;;;;;;;9.00;2.67;;;;;;;7.87;86.24;100563.50;6275459;22;20030;-94
2022/02/22 17:42:16;;;;;;;;;;;;;;;;;;;;;
2022/02/22 17:48:25;;;;;;;11.38;3.25;;;;;;;7.89;85.65;100560.81;6275805;22;20015;-92
2022/02/22 17:51:31;;;;;;;;;;;;;;;;;;;;;
2022/02/22 18:02:03;;;;;;;10.43;2.90;;;;;;;8.21;85.86;100576.44;6313808;22;20030;-93
2022/02/22 18:19:48;;;;;;;;;;;;;;;;;;;;;
2022/02/22 18:23:46;;;;;;;9.50;2.70;;;;;;;8.27;86.84;100562.19;6158565;23;20491;-92
2022/02/22 18:39:03;;;;;;;;;;;;;;;;;;;;;
2022/02/22 18:42:22;;;;;;;;;;;;;;;;;;;;;
2022/02/22 18:45:47;;;;;;;11.80;2.95;;;;;;;8.13;86.87;100509.03;6324351;22;20067;-96
2022/02/22 22:54:53;;;;;;;5.13;0.80;;;;;;;6.67;100.00;100710.22;6322219;22;20033;-93
2022/02/22 22:57:36;;;;;;;4.22;1.00;;;;;;;6.67;100.00;100699.69;6345666;22;20019;-93
2022/02/22 23:04:07;;;;;;;5.65;0.90;;;;;;;6.80;98.04;100715.13;6334043;22;20018;-93
2022/02/22 23:15:54;;;;;;;6.15;1.05;;;;;;;7.18;96.79;100787.84;6340418;22;20014;-92
2022/02/22 23:18:37;;;;;;;5.95;1.05;;;;;;;7.13;96.03;100780.06;6345275;22;20014;-92
2022/02/22 23:21:13;;;;;;;4.50;1.35;;;;;;;6.79;95.95;100745.00;6343528;22;20029;-92
2022/02/22 23:24:21;;;;;;;5.22;1.17;;;;;;;7.06;95.97;100804.00;6214806;23;20020;-91
2022/02/22 23:27:04;;;;;;;7.90;1.38;;;;;;;6.76;93.81;100767.03;6220074;23;20020;-93
2022/02/22 23:29:55;;;;;;;;;;;;;;;;;;;;;
2022/02/22 23:32:31;;;;;;;8.50;1.50;;;;;;;6.70;93.93;100785.59;6192383;23;20437;-93
2022/02/22 23:35:15;;;;;;;8.52;1.73;;;;;;;6.83;94.64;100817.72;6216445;23;20020;-94
2022/02/22 23:37:46;;;;;;;4.90;1.63;;;;;;;6.73;95.56;100837.28;6214405;23;20095;-93
2022/02/22 23:40:30;;;;;;;;;;;;;;;;;;;;;
2022/02/22 23:43:19;;;;;;;9.65;1.85;;;;;;;6.34;95.29;100797.84;6213257;23;20019;-95
2022/02/22 23:46:05;;;;;;;9.18;1.50;;;;;;;6.47;96.83;100846.66;6214264;23;20028;-95
2022/02/22 23:49:07;;;;;;;8.70;1.85;;;;;;;6.13;96.86;100809.75;6192195;23;20737;-93
2022/02/22 23:51:51;;;;;;;8.77;1.48;;;;;;;6.16;95.85;100824.56;6212158;23;20029;-94
2022/02/22 23:54:21;;;;;;;13.35;2.05;;;;;;;6.37;94.35;100846.91;6188495;23;20457;-96
2022/02/22 23:57:17;;;;;;;9.50;1.50;;;;;;;6.59;95.06;100898.16;6188605;23;20020;-95
2022/02/22 23:59:55;;;;;;;8.05;1.88;;;;;;;6.61;93.54;100884.03;6211037;23;20024;-94
